Time;durP1;ratioP1;P1;durP2;ratioP2;P2;SDS_P1;SDS_P2;PMS_P1;PMS_P2;Temp;Humidity;BMP_temperature;BMP_pressure;BME280_temperature;BME280_humidity;BME280_pressure;Samples;Min_cycle;Max_cycle;Signal;HPM_P1;HPM_P2
2023/09/20 00:00:36;;;;;;;4.23;2.10;;;17.10;98.00;;;;;;5030413;28;20200;-63
2023/09/20 00:03:02;;;;;;;3.50;2.23;;;17.00;97.40;;;;;;5038960;28;20194;-62
2023/09/20 00:05:28;;;;;;;5.37;2.20;;;16.90;97.90;;;;;;5041365;28;20963;-64
2023/09/20 00:07:57;;;;;;;3.53;1.77;;;16.90;98.00;;;;;;5037227;28;20198;-64
2023/09/20 00:10:23;;;;;;;4.47;2.27;;;16.90;97.90;;;;;;5035875;28;20964;-60
2023/09/20 00:12:48;;;;;;;5.13;2.23;;;16.80;99.20;;;;;;5036092;28;20286;-62
2023/09/20 00:15:14;;;;;;;6.03;1.83;;;16.80;98.30;;;;;;5036923;28;20511;-65
2023/09/20 00:17:40;;;;;;;5.30;2.23;;;16.90;98.10;;;;;;5038008;28;20731;-62
2023/09/20 00:20:13;;;;;;;5.83;2.10;;;16.90;98.30;;;;;;5040078;28;20199;-63
2023/09/20 00:22:40;;;;;;;4.07;2.47;;;16.90;98.10;;;;;;5038030;28;20930;-65
2023/09/20 00:25:07;;;;;;;8.20;2.67;;;16.80;98.90;;;;;;5036260;28;20533;-63
2023/09/20 00:27:33;;;;;;;2.83;1.77;;;16.80;98.70;;;;;;5039868;28;20257;-64
2023/09/20 00:29:58;;;;;;;5.27;2.20;;;16.70;98.90;;;;;;5025326;28;20201;-64
2023/09/20 00:32:23;;;;;;;5.50;1.93;;;16.70;99.00;;;;;;5023339;28;20186;-62
2023/09/20 00:34:50;;;;;;;6.97;2.27;;;16.70;98.60;;;;;;5036830;28;20817;-62
2023/09/20 00:37:16;;;;;;;4.20;2.00;;;16.80;98.70;;;;;;5036256;28;20703;-62
2023/09/20 00:39:41;;;;;;;3.70;2.20;;;16.70;98.90;;;;;;5024550;28;20221;-63
2023/09/20 00:42:07;;;;;;;4.97;2.47;;;16.70;99.10;;;;;;5039220;28;20223;-64
2023/09/20 00:44:33;;;;;;;6.37;2.27;;;16.70;99.00;;;;;;5033597;28;20191;-63
2023/09/20 00:46:58;;;;;;;2.83;1.87;;;16.60;99.10;;;;;;5038415;28;20982;-64
2023/09/20 00:49:24;;;;;;;4.57;2.20;;;16.60;99.40;;;;;;5045144;28;20226;-63
2023/09/20 00:51:51;;;;;;;4.10;1.83;;;16.50;99.40;;;;;;5018666;28;20253;-64
2023/09/20 00:54:17;;;;;;;4.33;1.40;;;16.60;99.20;;;;;;5033821;28;20210;-64
2023/09/20 00:56:43;;;;;;;2.63;1.97;;;16.50;99.20;;;;;;5037203;28;20202;-64
2023/09/20 00:59:09;;;;;;;4.03;2.67;;;16.50;99.40;;;;;;5039389;28;20247;-64
2023/09/20 01:01:36;;;;;;;3.80;1.73;;;16.50;99.50;;;;;;5039114;28;20191;-63
2023/09/20 01:04:02;;;;;;;4.40;1.87;;;16.50;99.40;;;;;;5041025;28;20193;-64
2023/09/20 01:06:29;;;;;;;3.53;2.10;;;16.50;99.50;;;;;;5039931;28;20925;-63
2023/09/20 01:08:55;;;;;;;3.73;2.00;;;16.50;99.50;;;;;;5035428;28;20194;-67
2023/09/20 01:11:21;;;;;;;6.27;2.50;;;16.50;99.70;;;;;;5039723;28;20237;-64
2023/09/20 01:13:47;;;;;;;4.20;2.03;;;16.40;99.90;;;;;;5034571;28;20755;-65
2023/09/20 01:16:15;;;;;;;3.73;2.33;;;16.40;99.90;;;;;;5038421;28;20207;-63
2023/09/20 01:18:44;;;;;;;6.13;2.60;;;16.40;99.90;;;;;;5020873;28;20205;-63
2023/09/20 01:21:13;;;;;;;2.97;1.77;;;16.40;99.90;;;;;;5036291;28;20763;-61
2023/09/20 01:23:40;;;;;;;4.60;1.90;;;16.40;99.90;;;;;;5037846;28;20199;-62
2023/09/20 01:26:06;;;;;;;5.10;2.10;;;16.40;99.90;;;;;;5040252;28;20286;-61
2023/09/20 01:28:31;;;;;;;3.60;1.93;;;16.40;99.90;;;;;;5034416;28;20200;-61
2023/09/20 01:31:00;;;;;;;4.37;2.47;;;16.30;99.90;;;;;;5037267;28;20204;-61
2023/09/20 01:33:26;;;;;;;6.43;2.10;;;16.30;99.90;;;;;;5036553;28;20301;-61
2023/09/20 01:35:51;;;;;;;2.63;1.40;;;16.20;99.90;;;;;;5038298;28;20223;-61
2023/09/20 01:38:17;;;;;;;7.47;2.47;;;16.20;99.90;;;;;;5020413;28;20198;-62
2023/09/20 01:40:42;;;;;;;3.63;1.93;;;16.20;99.90;;;;;;5035781;28;20685;-63
2023/09/20 01:43:08;;;;;;;3.77;1.90;;;16.20;99.90;;;;;;5039235;28;20261;-62
2023/09/20 01:45:35;;;;;;;5.77;2.40;;;16.30;99.90;;;;;;5035790;28;20203;-62
2023/09/20 01:48:06;;;;;;;8.00;2.10;;;16.20;99.90;;;;;;5035263;28;20218;-62
2023/09/20 01:50:31;;;;;;;3.30;1.90;;;16.10;99.90;;;;;;5022958;28;20210;-62
2023/09/20 01:52:59;;;;;;;4.70;1.90;;;16.20;99.90;;;;;;5020511;28;20783;-62
2023/09/20 01:55:27;;;;;;;3.67;1.90;;;16.20;99.90;;;;;;5021664;28;20214;-62
2023/09/20 01:57:55;;;;;;;3.40;2.00;;;16.10;99.90;;;;;;5039577;28;20298;-62
2023/09/20 02:00:23;;;;;;;3.83;1.90;;;16.10;99.90;;;;;;5034934;28;20203;-62
2023/09/20 02:05:37;;;;;;;6.77;2.10;;;16.00;99.90;;;;;;5031215;28;20405;-62
2023/09/20 02:08:04;;;;;;;5.20;2.53;;;16.10;99.90;;;;;;5039076;28;21836;-62
2023/09/20 02:10:31;;;;;;;4.50;2.67;;;16.10;99.90;;;;;;5040457;28;20210;-61
2023/09/20 02:12:57;;;;;;;4.50;2.17;;;16.10;99.90;;;;;;5034954;28;20815;-61
2023/09/20 02:15:25;;;;;;;4.40;1.90;;;16.10;99.90;;;;;;5039333;28;20217;-61
2023/09/20 02:17:50;;;;;;;4.97;2.10;;;16.10;99.90;;;;;;5033797;28;20210;-61
2023/09/20 02:20:20;;;;;;;3.47;1.97;;;16.00;99.90;;;;;;5041245;28;20207;-62
2023/09/20 02:22:54;;;;;;;6.07;2.33;;;16.00;99.90;;;;;;5019190;28;20230;-62
2023/09/20 02:25:20;;;;;;;4.00;2.00;;;16.10;99.90;;;;;;5032158;28;20562;-61
2023/09/20 02:27:50;;;;;;;5.23;1.70;;;16.10;99.90;;;;;;5037903;28;20210;-62
2023/09/20 02:30:26;;;;;;;3.60;2.37;;;16.10;99.90;;;;;;5033548;28;20771;-62
2023/09/20 02:32:52;;;;;;;6.57;2.20;;;16.10;99.90;;;;;;5038603;28;20198;-63
2023/09/20 02:35:19;;;;;;;4.93;1.63;;;16.10;99.90;;;;;;5037567;28;20211;-62
2023/09/20 02:37:46;;;;;;;2.70;1.60;;;16.10;99.90;;;;;;5037472;28;20210;-63
2023/09/20 02:40:13;;;;;;;4.67;2.07;;;16.10;99.90;;;;;;5038752;28;20203;-61
2023/09/20 02:42:46;;;;;;;2.63;2.00;;;16.10;99.90;;;;;;5034037;28;20229;-60
2023/09/20 02:45:13;;;;;;;8.10;2.00;;;16.20;99.90;;;;;;5033133;28;20289;-58
2023/09/20 02:47:43;;;;;;;6.20;2.23;;;16.10;99.90;;;;;;5037928;28;20666;-63
2023/09/20 02:50:12;;;;;;;5.17;1.93;;;16.20;99.90;;;;;;5041460;28;20202;-63
2023/09/20 02:52:39;;;;;;;3.43;1.83;;;16.30;99.90;;;;;;5040958;28;20195;-62
2023/09/20 02:55:07;;;;;;;4.73;1.80;;;16.30;99.90;;;;;;5035904;28;20218;-62
2023/09/20 02:57:37;;;;;;;3.13;1.60;;;16.30;99.90;;;;;;5033075;28;20199;-62
2023/09/20 03:00:16;;;;;;;5.40;2.17;;;16.40;99.90;;;;;;5035206;28;20201;-62
2023/09/20 03:02:45;;;;;;;7.70;2.17;;;16.40;99.90;;;;;;5031846;28;20622;-68
2023/09/20 03:05:13;;;;;;;4.53;1.80;;;16.30;99.90;;;;;;5018865;28;20322;-68
2023/09/20 03:07:39;;;;;;;6.33;1.80;;;16.20;99.90;;;;;;5032076;28;20718;-67
2023/09/20 03:10:05;;;;;;;4.63;2.37;;;16.30;99.90;;;;;;5031988;28;20199;-68
2023/09/20 03:12:32;;;;;;;3.23;1.80;;;16.20;99.90;;;;;;5034872;28;20219;-68
2023/09/20 03:15:02;;;;;;;6.10;1.87;;;16.30;99.90;;;;;;5037412;28;20210;-68
2023/09/20 03:17:28;;;;;;;3.20;1.67;;;16.30;99.90;;;;;;5036663;28;20550;-67
2023/09/20 03:19:54;;;;;;;4.20;2.47;;;16.20;99.90;;;;;;5034020;28;20195;-67
2023/09/20 03:22:19;;;;;;;3.50;2.23;;;16.20;99.90;;;;;;5033838;28;20305;-66
2023/09/20 03:24:47;;;;;;;3.57;1.77;;;16.30;99.90;;;;;;5040301;28;20288;-66
2023/09/20 03:27:15;;;;;;;3.07;1.60;;;16.40;99.90;;;;;;5022338;28;20206;-66
2023/09/20 03:29:42;;;;;;;3.87;1.97;;;16.30;99.90;;;;;;5037924;28;20196;-65
2023/09/20 03:32:08;;;;;;;1.53;1.40;;;16.30;99.90;;;;;;5034127;28;20681;-65
2023/09/20 03:34:33;;;;;;;5.33;2.37;;;16.30;99.90;;;;;;5040397;28;20217;-70
2023/09/20 03:36:59;;;;;;;3.53;1.47;;;16.30;99.90;;;;;;5036314;28;20548;-64
2023/09/20 03:39:24;;;;;;;3.43;2.47;;;16.40;99.90;;;;;;5015971;28;20229;-70
2023/09/20 03:41:51;;;;;;;4.37;1.70;;;16.30;99.90;;;;;;5018054;28;20203;-62
2023/09/20 03:44:17;;;;;;;2.43;1.83;;;16.30;99.90;;;;;;5028386;28;20199;-66
2023/09/20 03:46:43;;;;;;;3.50;1.97;;;16.20;99.90;;;;;;5033368;28;20203;-64
2023/09/20 03:49:10;;;;;;;5.17;1.60;;;16.30;99.90;;;;;;5035895;28;20227;-59
2023/09/20 03:51:36;;;;;;;4.77;1.77;;;16.20;99.90;;;;;;5037513;28;20676;-59
2023/09/20 03:54:02;;;;;;;3.20;1.93;;;16.20;99.90;;;;;;5032225;28;20241;-60
2023/09/20 03:56:28;;;;;;;5.60;2.10;;;16.20;99.90;;;;;;5044984;28;20970;-72
2023/09/20 03:58:54;;;;;;;6.17;2.10;;;16.30;99.90;;;;;;5033017;28;20194;-70
2023/09/20 04:01:20;;;;;;;2.70;2.33;;;16.10;99.90;;;;;;5036225;28;20294;-73
2023/09/20 04:03:46;;;;;;;6.60;2.60;;;16.20;99.90;;;;;;5036709;28;20205;-68
2023/09/20 04:06:11;;;;;;;2.30;1.90;;;16.10;99.90;;;;;;5031973;28;20293;-67
2023/09/20 04:08:37;;;;;;;5.07;1.93;;;16.10;99.90;;;;;;5028500;28;20239;-74
2023/09/20 04:11:04;;;;;;;2.50;1.63;;;16.20;99.90;;;;;;5016848;28;20203;-73
2023/09/20 04:13:31;;;;;;;4.00;1.97;;;16.10;99.90;;;;;;5016552;28;20890;-74
2023/09/20 04:15:57;;;;;;;3.40;1.73;;;16.00;99.90;;;;;;5016759;28;20308;-75
2023/09/20 04:18:23;;;;;;;3.07;2.03;;;16.00;99.90;;;;;;5039078;28;20198;-69
2023/09/20 04:20:51;;;;;;;4.80;2.17;;;16.00;99.90;;;;;;5030819;28;20269;-70
2023/09/20 04:23:16;;;;;;;5.03;2.00;;;16.00;99.90;;;;;;5036375;28;20217;-73
2023/09/20 04:25:42;;;;;;;3.30;2.07;;;15.90;99.90;;;;;;5037249;28;20199;-76
2023/09/20 04:28:09;;;;;;;2.27;1.90;;;15.80;99.90;;;;;;5036682;28;20313;-74
2023/09/20 04:30:36;;;;;;;3.80;2.27;;;15.90;99.90;;;;;;5036425;28;20197;-73
2023/09/20 04:33:05;;;;;;;2.93;1.77;;;15.80;99.90;;;;;;5033682;28;20222;-72
2023/09/20 04:35:31;;;;;;;2.27;2.03;;;15.70;99.90;;;;;;5036437;28;20633;-74
2023/09/20 04:37:57;;;;;;;3.57;2.13;;;15.80;99.90;;;;;;5036007;28;20187;-71
2023/09/20 04:40:24;;;;;;;3.23;1.97;;;15.80;99.90;;;;;;5035369;28;20203;-71
2023/09/20 04:42:49;;;;;;;3.93;2.30;;;15.80;99.90;;;;;;5035546;28;20231;-70
2023/09/20 04:45:15;;;;;;;5.53;2.10;;;15.90;99.90;;;;;;5037133;28;20236;-70
2023/09/20 04:47:40;;;;;;;5.87;2.10;;;15.90;99.90;;;;;;5032810;28;20233;-69
2023/09/20 04:50:07;;;;;;;4.40;2.30;;;15.80;99.90;;;;;;5034021;28;20208;-69
2023/09/20 04:52:33;;;;;;;2.57;1.90;;;15.70;99.90;;;;;;5016587;28;20211;-69
2023/09/20 04:54:58;;;;;;;3.60;2.30;;;15.70;99.90;;;;;;5032649;28;20222;-71
2023/09/20 04:57:24;;;;;;;2.93;2.10;;;15.80;99.90;;;;;;5017641;28;20221;-71
2023/09/20 04:59:50;;;;;;;2.57;1.87;;;15.80;99.90;;;;;;5039505;28;20230;-73
2023/09/20 05:02:15;;;;;;;3.50;1.70;;;15.80;99.90;;;;;;5035916;28;20199;-72
2023/09/20 05:04:41;;;;;;;3.63;2.20;;;15.70;99.90;;;;;;5034500;28;20203;-72
2023/09/20 05:07:07;;;;;;;3.37;2.20;;;15.70;99.90;;;;;;5036846;28;20279;-71
2023/09/20 05:09:34;;;;;;;5.07;2.43;;;15.80;99.90;;;;;;5028316;28;20254;-72
2023/09/20 05:12:00;;;;;;;5.60;2.10;;;15.60;99.90;;;;;;5035051;28;20205;-73
2023/09/20 05:14:27;;;;;;;4.43;2.23;;;15.60;99.90;;;;;;5037798;28;20218;-73
2023/09/20 05:16:52;;;;;;;4.10;1.83;;;15.70;99.90;;;;;;5018580;28;20198;-72
2023/09/20 05:19:18;;;;;;;6.47;2.13;;;15.80;99.90;;;;;;5043928;28;20206;-72
2023/09/20 05:21:45;;;;;;;5.27;1.87;;;15.70;99.90;;;;;;5036991;28;20555;-73
2023/09/20 05:24:10;;;;;;;5.37;2.17;;;15.50;99.90;;;;;;5038899;28;20191;-73
2023/09/20 05:26:36;;;;;;;4.63;2.13;;;15.70;99.90;;;;;;5039227;28;20206;-70
2023/09/20 05:29:03;;;;;;;3.97;2.03;;;15.70;99.90;;;;;;5042913;28;20370;-70
2023/09/20 05:31:29;;;;;;;5.63;2.83;;;15.70;99.90;;;;;;5031999;28;20222;-70
2023/09/20 05:33:55;;;;;;;3.90;2.43;;;15.60;99.90;;;;;;5035106;28;20325;-70
2023/09/20 05:36:26;;;;;;;2.27;2.07;;;15.70;99.90;;;;;;5040526;28;20345;-70
2023/09/20 05:38:53;;;;;;;3.53;2.57;;;15.60;99.90;;;;;;5023117;28;20688;-71
2023/09/20 05:41:18;;;;;;;4.80;2.53;;;15.50;99.90;;;;;;5021470;28;20573;-71
2023/09/20 05:43:44;;;;;;;5.40;2.10;;;15.50;99.90;;;;;;5017497;28;20207;-69
2023/09/20 05:46:13;;;;;;;6.70;2.90;;;15.60;99.90;;;;;;5017435;28;20325;-70
2023/09/20 05:48:39;;;;;;;5.30;2.33;;;15.50;99.90;;;;;;5036039;28;20305;-70
2023/09/20 05:51:04;;;;;;;8.13;2.70;;;15.60;99.90;;;;;;5028913;28;20237;-70
2023/09/20 05:53:30;;;;;;;3.83;2.07;;;15.60;99.90;;;;;;5026938;28;20258;-70
2023/09/20 05:55:55;;;;;;;3.70;2.17;;;15.70;99.90;;;;;;5033034;28;20216;-71
2023/09/20 05:58:21;;;;;;;5.17;2.27;;;15.70;99.90;;;;;;5036069;28;20249;-71
2023/09/20 06:00:48;;;;;;;2.33;1.70;;;15.60;99.90;;;;;;5032344;28;20191;-70
2023/09/20 06:03:13;;;;;;;3.43;2.73;;;15.70;99.90;;;;;;5034809;28;20214;-69
2023/09/20 06:05:39;;;;;;;9.53;2.47;;;15.70;99.90;;;;;;5035510;28;20183;-71
2023/09/20 06:08:08;;;;;;;4.80;2.23;;;15.70;99.90;;;;;;5029964;28;20190;-68
2023/09/20 06:10:33;;;;;;;3.63;2.30;;;15.80;99.90;;;;;;5025994;28;20188;-68
2023/09/20 06:12:59;;;;;;;4.97;2.20;;;15.90;99.90;;;;;;5041477;28;20547;-68
2023/09/20 06:15:25;;;;;;;4.33;2.43;;;15.90;99.90;;;;;;5035731;28;20266;-68
2023/09/20 06:17:51;;;;;;;4.10;2.00;;;15.80;99.90;;;;;;5041875;28;20264;-69
2023/09/20 06:20:21;;;;;;;2.40;1.87;;;15.90;99.90;;;;;;5008850;28;20183;-68
2023/09/20 06:22:48;;;;;;;7.27;2.30;;;16.00;99.90;;;;;;5026846;28;20244;-69
2023/09/20 06:25:15;;;;;;;6.70;2.60;;;16.10;99.90;;;;;;5033341;28;20756;-68
2023/09/20 06:27:41;;;;;;;5.43;2.47;;;16.20;99.90;;;;;;5021971;28;20192;-69
2023/09/20 06:30:12;;;;;;;2.30;2.03;;;16.20;99.90;;;;;;5033167;28;20195;-68
2023/09/20 06:32:38;;;;;;;5.60;1.87;;;16.30;99.90;;;;;;5029656;28;20283;-68
2023/09/20 06:35:05;;;;;;;3.33;2.37;;;16.40;99.90;;;;;;5031348;28;20329;-68
2023/09/20 06:37:30;;;;;;;6.33;2.20;;;16.50;99.90;;;;;;5040772;28;20198;-68
2023/09/20 06:39:56;;;;;;;3.17;2.13;;;16.50;99.90;;;;;;5039406;28;20192;-70
2023/09/20 06:42:23;;;;;;;1.83;1.73;;;16.60;99.90;;;;;;5027741;28;20608;-71
2023/09/20 06:44:49;;;;;;;3.70;2.23;;;16.70;99.90;;;;;;5024094;28;20821;-70
2023/09/20 06:47:17;;;;;;;4.30;1.87;;;16.80;99.90;;;;;;5026814;28;20190;-70
2023/09/20 06:49:42;;;;;;;2.43;1.60;;;16.80;99.90;;;;;;5026129;28;20172;-70
2023/09/20 06:52:08;;;;;;;2.90;1.70;;;16.90;99.90;;;;;;5027081;28;20764;-70
2023/09/20 06:54:36;;;;;;;4.67;2.00;;;16.90;99.90;;;;;;5024313;28;20212;-70
2023/09/20 06:57:02;;;;;;;2.20;2.00;;;17.00;99.90;;;;;;5043219;28;20263;-71
2023/09/20 06:59:37;;;;;;;4.73;1.90;;;17.00;99.90;;;;;;5040367;28;21399;-70
2023/09/20 07:02:03;;;;;;;3.90;2.00;;;17.10;99.90;;;;;;5034101;28;20187;-70
2023/09/20 07:04:28;;;;;;;2.90;2.13;;;17.20;99.90;;;;;;5020919;28;20198;-71
2023/09/20 07:06:57;;;;;;;4.87;2.00;;;17.30;99.90;;;;;;5029361;28;20178;-71
2023/09/20 07:09:23;;;;;;;5.93;1.90;;;17.50;99.90;;;;;;5041429;28;20204;-71
2023/09/20 07:11:50;;;;;;;5.40;2.03;;;17.50;99.90;;;;;;5038039;28;20201;-70
2023/09/20 07:14:20;;;;;;;5.93;2.17;;;17.60;99.90;;;;;;5042833;28;20211;-68
2023/09/20 07:16:47;;;;;;;4.63;1.77;;;17.60;99.90;;;;;;5023757;28;20201;-67
2023/09/20 07:19:17;;;;;;;5.47;2.10;;;17.70;99.90;;;;;;5041990;28;20192;-68
2023/09/20 07:21:43;;;;;;;3.60;2.30;;;17.70;99.90;;;;;;5041419;28;20196;-65
2023/09/20 07:24:12;;;;;;;4.03;2.17;;;17.80;99.90;;;;;;5005213;28;20390;-64
2023/09/20 07:26:43;;;;;;;2.57;1.73;;;17.90;99.90;;;;;;5042021;28;20204;-64
2023/09/20 07:29:13;;;;;;;5.60;1.83;;;17.90;99.90;;;;;;5034455;28;20211;-64
2023/09/20 07:31:38;;;;;;;4.37;2.00;;;18.00;99.90;;;;;;5023848;28;20252;-63
2023/09/20 07:34:04;;;;;;;3.70;2.03;;;18.10;99.90;;;;;;5019761;28;20201;-64
2023/09/20 07:36:34;;;;;;;3.90;2.17;;;18.10;99.90;;;;;;5038468;28;20212;-69
2023/09/20 07:39:07;;;;;;;3.90;1.73;;;18.10;99.90;;;;;;5039586;28;20283;-62
2023/09/20 07:41:33;;;;;;;2.77;2.23;;;18.20;99.90;;;;;;5040418;28;20185;-63
2023/09/20 07:43:59;;;;;;;4.87;1.90;;;18.20;99.90;;;;;;5015545;28;20868;-63
2023/09/20 07:46:24;;;;;;;3.43;1.63;;;18.30;99.90;;;;;;5017082;28;20292;-63
2023/09/20 07:48:50;;;;;;;3.30;1.77;;;18.40;99.90;;;;;;5019404;28;20218;-62
2023/09/20 07:51:23;;;;;;;3.17;1.60;;;18.50;99.90;;;;;;5035828;28;20204;-63
2023/09/20 07:53:53;;;;;;;2.43;2.03;;;18.60;99.90;;;;;;5015870;28;20747;-60
2023/09/20 07:56:20;;;;;;;2.10;1.63;;;18.70;99.90;;;;;;5041281;28;20710;-61
2023/09/20 07:58:45;;;;;;;2.20;2.00;;;18.70;99.90;;;;;;5033450;28;20192;-64
2023/09/20 08:01:20;;;;;;;6.20;2.67;;;18.70;99.90;;;;;;5033001;28;20216;-63
2023/09/20 08:03:52;;;;;;;2.17;1.80;;;18.80;99.90;;;;;;5035984;28;20199;-64
2023/09/20 08:06:19;;;;;;;2.60;1.60;;;18.90;99.90;;;;;;5020842;28;20721;-67
2023/09/20 08:08:45;;;;;;;3.17;2.30;;;19.00;99.90;;;;;;5035977;28;20194;-63
2023/09/20 08:11:11;;;;;;;3.03;2.07;;;19.00;99.90;;;;;;5019268;28;20206;-65
2023/09/20 08:13:36;;;;;;;2.93;1.50;;;19.20;99.90;;;;;;5034693;28;20612;-66
2023/09/20 08:16:02;;;;;;;1.87;1.67;;;19.20;99.90;;;;;;5017455;28;20229;-65
2023/09/20 08:21:13;;;;;;;4.10;2.03;;;19.30;99.90;;;;;;5034142;28;20256;-64
2023/09/20 08:59:50;;;;;;;5.27;2.10;;;20.10;99.90;;;;;;5037459;28;20281;-69
2023/09/20 09:02:16;;;;;;;5.70;1.90;;;20.10;99.90;;;;;;5022648;28;20289;-68
2023/09/20 09:04:46;;;;;;;3.97;1.70;;;20.10;99.90;;;;;;5039133;28;20603;-68
2023/09/20 09:07:12;;;;;;;3.40;2.07;;;20.40;99.90;;;;;;5035718;28;20474;-67
2023/09/20 09:09:40;;;;;;;6.30;2.67;;;20.50;99.90;;;;;;5022774;28;20233;-66
2023/09/20 09:12:05;;;;;;;4.27;1.70;;;20.40;99.90;;;;;;5036576;28;20314;-63
2023/09/20 09:14:35;;;;;;;6.67;2.00;;;20.30;99.90;;;;;;5041256;28;21087;-63
2023/09/20 09:17:02;;;;;;;4.23;2.20;;;20.40;99.90;;;;;;5031880;28;20209;-69
2023/09/20 09:19:28;;;;;;;6.17;1.90;;;20.40;99.90;;;;;;5036793;28;20203;-62
2023/09/20 09:21:54;;;;;;;4.07;2.00;;;20.50;99.90;;;;;;5020015;28;20229;-62
2023/09/20 09:24:21;;;;;;;3.90;1.97;;;20.50;99.90;;;;;;5036275;28;20247;-62
2023/09/20 09:26:46;;;;;;;2.60;1.70;;;20.50;99.90;;;;;;5036936;28;20907;-62
2023/09/20 09:29:19;;;;;;;2.53;1.87;;;20.40;99.90;;;;;;5039110;28;20284;-63
2023/09/20 09:31:50;;;;;;;8.03;2.17;;;20.30;99.90;;;;;;5024618;28;20223;-63
2023/09/20 09:34:21;;;;;;;4.67;2.00;;;20.40;99.90;;;;;;5031643;28;20217;-62
2023/09/20 09:36:47;;;;;;;6.20;2.07;;;20.40;99.90;;;;;;5040756;28;20759;-62
2023/09/20 09:39:14;;;;;;;4.33;2.20;;;20.40;99.90;;;;;;5039135;28;20205;-62
2023/09/20 09:41:43;;;;;;;3.60;1.80;;;20.40;99.90;;;;;;5035031;28;21016;-62
2023/09/20 09:44:10;;;;;;;8.93;1.90;;;20.50;99.90;;;;;;5031969;28;20685;-65
2023/09/20 09:46:38;;;;;;;5.37;2.47;;;20.50;99.90;;;;;;5036006;28;20209;-65
2023/09/20 09:49:10;;;;;;;3.33;2.03;;;20.50;99.90;;;;;;5020841;28;20605;-62
2023/09/20 09:51:50;;;;;;;3.80;2.20;;;20.40;99.90;;;;;;5035669;28;20233;-62
2023/09/20 09:54:17;;;;;;;7.80;1.90;;;20.40;99.90;;;;;;5033938;28;20718;-62
2023/09/20 09:56:43;;;;;;;2.60;2.20;;;20.40;99.90;;;;;;5034698;28;20213;-62
2023/09/20 09:59:10;;;;;;;4.37;1.97;;;20.40;99.90;;;;;;5038264;28;20205;-64
2023/09/20 10:01:38;;;;;;;3.10;2.50;;;20.50;99.90;;;;;;5036031;28;20200;-62
2023/09/20 10:04:08;;;;;;;3.17;1.97;;;20.60;99.90;;;;;;5028286;28;20213;-66
2023/09/20 10:06:44;;;;;;;3.60;1.67;;;20.70;99.90;;;;;;5030083;28;20676;-65
2023/09/20 10:09:11;;;;;;;3.53;2.33;;;20.70;99.90;;;;;;5035641;28;21011;-63
2023/09/20 10:11:38;;;;;;;3.67;1.97;;;20.80;99.90;;;;;;5017964;28;20979;-62
2023/09/20 10:14:07;;;;;;;2.40;1.87;;;20.80;99.90;;;;;;5019850;28;21070;-62
2023/09/20 10:16:34;;;;;;;4.93;1.90;;;20.80;99.90;;;;;;5031322;28;20770;-60
2023/09/20 10:19:01;;;;;;;4.13;1.70;;;20.80;99.90;;;;;;5032599;28;20190;-62
2023/09/20 10:21:30;;;;;;;3.07;1.90;;;20.80;99.90;;;;;;5034805;28;20251;-61
2023/09/20 10:24:07;;;;;;;3.07;1.60;;;20.90;99.90;;;;;;5025982;28;20190;-62
2023/09/20 10:26:40;;;;;;;2.00;1.87;;;20.90;99.90;;;;;;5012461;28;20202;-60
2023/09/20 10:29:35;;;;;;;6.80;2.10;;;21.00;99.90;;;;;;5033195;28;21086;-61
2023/09/20 10:32:17;;;;;;;3.13;1.70;;;20.90;99.90;;;;;;5016256;28;20213;-62
2023/09/20 10:35:19;;;;;;;5.53;2.43;;;21.10;99.90;;;;;;5030370;28;20224;-62
2023/09/20 10:38:11;;;;;;;4.27;2.20;;;21.20;99.90;;;;;;5034604;28;20250;-61
2023/09/20 10:40:46;;;;;;;5.90;2.40;;;21.40;99.90;;;;;;5031254;28;20201;-62
2023/09/20 10:43:16;;;;;;;2.90;2.00;;;21.50;99.90;;;;;;5033669;28;20253;-61
2023/09/20 10:45:50;;;;;;;2.50;1.63;;;21.50;99.90;;;;;;5029424;28;20202;-62
2023/09/20 10:48:18;;;;;;;2.97;1.83;;;21.60;99.90;;;;;;5030243;28;20229;-62
2023/09/20 10:50:54;;;;;;;4.00;2.13;;;21.60;99.90;;;;;;5028866;28;20701;-62
2023/09/20 10:53:22;;;;;;;2.57;1.60;;;21.60;99.90;;;;;;5025492;28;20290;-62
2023/09/20 10:55:49;;;;;;;3.17;1.70;;;21.90;99.90;;;;;;5040608;28;20221;-61
2023/09/20 10:58:18;;;;;;;4.00;1.80;;;21.90;99.90;;;;;;5022640;28;20194;-62
2023/09/20 11:00:44;;;;;;;3.43;1.67;;;21.90;99.90;;;;;;5039500;28;20217;-62
2023/09/20 11:03:11;;;;;;;7.23;2.80;;;21.90;99.90;;;;;;5028561;28;20207;-62
2023/09/20 11:05:38;;;;;;;9.13;2.90;;;22.00;99.90;;;;;;5034515;28;20244;-61
2023/09/20 11:08:08;;;;;;;4.53;1.87;;;22.00;99.90;;;;;;5022532;28;20252;-63
2023/09/20 11:10:34;;;;;;;8.27;2.50;;;22.10;99.90;;;;;;5016124;28;20197;-63
2023/09/20 11:13:06;;;;;;;4.87;2.03;;;22.30;99.90;;;;;;5033732;28;20206;-65
2023/09/20 11:15:40;;;;;;;4.00;1.77;;;22.60;99.90;;;;;;5033239;28;20309;-63
2023/09/20 11:18:06;;;;;;;4.43;1.90;;;22.90;99.90;;;;;;5011502;28;20259;-69
2023/09/20 11:20:32;;;;;;;2.83;1.67;;;22.90;99.90;;;;;;5037324;28;20225;-68
2023/09/20 11:22:58;;;;;;;7.37;2.40;;;23.00;99.90;;;;;;5038160;28;20230;-67
2023/09/20 11:25:23;;;;;;;5.00;1.60;;;22.90;99.90;;;;;;5013902;28;20222;-66
2023/09/20 11:27:49;;;;;;;2.50;1.90;;;23.10;99.90;;;;;;5035519;28;20283;-68
2023/09/20 11:30:15;;;;;;;2.73;1.80;;;23.20;99.90;;;;;;5034608;28;20229;-65
2023/09/20 11:32:41;;;;;;;3.13;2.23;;;23.10;99.90;;;;;;5034568;28;20190;-62
2023/09/20 11:35:07;;;;;;;3.13;2.30;;;23.00;99.90;;;;;;5007600;28;20292;-64
2023/09/20 11:37:35;;;;;;;6.40;2.03;;;23.00;99.90;;;;;;5032132;28;20245;-64
2023/09/20 11:40:01;;;;;;;4.70;2.07;;;23.00;99.90;;;;;;5035847;28;20273;-64
2023/09/20 11:42:35;;;;;;;2.93;2.03;;;23.30;99.90;;;;;;5039402;28;20672;-63
2023/09/20 11:45:08;;;;;;;5.50;1.90;;;23.60;99.90;;;;;;5028588;28;20222;-63
2023/09/20 11:47:37;;;;;;;3.42;1.70;;;24.00;99.90;;;;;;5037476;28;20218;-64
2023/09/20 11:50:04;;;;;;;7.18;1.90;;;24.60;98.70;;;;;;5035862;28;20756;-66
2023/09/20 11:52:31;;;;;;;2.13;1.88;;;24.80;98.20;;;;;;5032497;28;20535;-64
2023/09/20 11:54:59;;;;;;;3.03;1.92;;;24.80;98.10;;;;;;5032086;28;20212;-65
2023/09/20 11:57:25;;;;;;;5.13;2.03;;;24.60;98.30;;;;;;5025180;28;20302;-67
2023/09/20 11:59:53;;;;;;;2.85;1.60;;;24.80;98.40;;;;;;5041378;28;20208;-66
2023/09/20 12:02:19;;;;;;;4.50;1.70;;;24.90;98.60;;;;;;5017132;28;20817;-64
2023/09/20 12:04:45;;;;;;;3.88;1.95;;;25.20;97.40;;;;;;5037107;28;20757;-64
2023/09/20 12:07:10;;;;;;;2.08;1.65;;;25.00;98.20;;;;;;5039279;28;20208;-63
2023/09/20 12:09:36;;;;;;;2.03;1.80;;;25.30;96.90;;;;;;5036974;28;20542;-62
2023/09/20 12:12:05;;;;;;;3.05;1.75;;;25.40;96.80;;;;;;5042678;28;20224;-61
2023/09/20 12:14:33;;;;;;;3.72;2.00;;;25.70;96.40;;;;;;5041307;28;20677;-61
2023/09/20 12:16:59;;;;;;;5.30;2.15;;;25.90;96.20;;;;;;5032843;28;20197;-61
2023/09/20 12:19:24;;;;;;;2.58;1.70;;;25.90;95.90;;;;;;5025396;28;20218;-67
2023/09/20 12:21:50;;;;;;;6.63;2.35;;;25.50;95.60;;;;;;5032229;28;20254;-64
2023/09/20 12:24:18;;;;;;;2.33;1.65;;;25.30;95.50;;;;;;5024218;28;20205;-63
2023/09/20 12:26:45;;;;;;;2.63;1.88;;;25.20;95.50;;;;;;5029956;28;20207;-63
2023/09/20 12:29:10;;;;;;;4.25;1.30;;;25.20;95.70;;;;;;5029181;28;20220;-65
2023/09/20 12:31:36;;;;;;;2.58;1.70;;;25.20;95.20;;;;;;5027275;28;20684;-64
2023/09/20 12:34:02;;;;;;;2.15;1.60;;;25.40;95.60;;;;;;5030988;28;20199;-65
2023/09/20 12:36:29;;;;;;;2.70;1.40;;;25.70;95.00;;;;;;5039822;28;20299;-65
2023/09/20 12:38:55;;;;;;;3.35;1.63;;;25.70;95.10;;;;;;5040383;28;20203;-63
2023/09/20 12:41:21;;;;;;;4.82;1.90;;;26.10;93.30;;;;;;5034584;28;20190;-69
2023/09/20 12:43:49;;;;;;;3.40;1.80;;;26.30;92.60;;;;;;5036195;28;20620;-62
2023/09/20 12:46:15;;;;;;;4.90;1.75;;;26.30;92.40;;;;;;5032504;28;20285;-63
2023/09/20 12:48:44;;;;;;;4.00;1.85;;;26.50;92.10;;;;;;5010166;28;20640;-61
2023/09/20 12:51:12;;;;;;;1.92;1.63;;;26.30;92.20;;;;;;5035074;28;20253;-65
2023/09/20 12:53:39;;;;;;;2.22;1.70;;;26.40;92.60;;;;;;5027322;28;20209;-65
2023/09/20 12:56:07;;;;;;;5.97;1.67;;;26.30;92.70;;;;;;5034094;28;20283;-65
2023/09/20 12:58:33;;;;;;;3.22;1.77;;;26.50;93.00;;;;;;5027521;28;20205;-65
2023/09/20 13:00:59;;;;;;;2.28;1.83;;;26.90;91.70;;;;;;5010683;28;20198;-65
2023/09/20 13:03:28;;;;;;;2.17;1.83;;;27.10;91.80;;;;;;5029942;28;20253;-66
2023/09/20 13:05:54;;;;;;;2.03;1.40;;;27.20;91.20;;;;;;5015272;28;20703;-66
2023/09/20 13:08:21;;;;;;;3.92;2.00;;;27.20;91.60;;;;;;5033325;28;20207;-66
2023/09/20 13:10:51;;;;;;;3.38;1.42;;;27.10;90.30;;;;;;5032223;28;20203;-67
2023/09/20 13:13:17;;;;;;;4.10;1.48;;;26.50;91.00;;;;;;5029243;28;20192;-63
2023/09/20 13:15:43;;;;;;;1.80;1.52;;;26.40;90.40;;;;;;5024121;28;21127;-66
2023/09/20 13:18:11;;;;;;;2.35;1.75;;;26.10;91.60;;;;;;5033900;28;21051;-70
2023/09/20 13:20:37;;;;;;;1.88;1.50;;;25.80;91.90;;;;;;5031243;28;20189;-63
2023/09/20 13:23:03;;;;;;;3.53;1.33;;;25.70;92.80;;;;;;5012078;28;20226;-63
2023/09/20 13:25:31;;;;;;;4.80;1.67;;;25.70;91.60;;;;;;5033985;28;20235;-63
2023/09/20 13:27:57;;;;;;;4.72;1.35;;;25.90;92.30;;;;;;5036334;28;20178;-65
2023/09/20 13:30:23;;;;;;;4.47;1.48;;;26.20;91.20;;;;;;5013431;28;20205;-70